createdAt,value
2018-04-22T00:00:03.582Z,14.10
2018-04-22T00:02:29.780Z,13.43
2018-04-22T00:04:56.091Z,14.77
2018-04-22T00:07:22.304Z,14.90
2018-04-22T00:09:48.554Z,14.60
2018-04-22T00:12:14.751Z,14.77
2018-04-22T00:14:40.988Z,13.93
2018-04-22T00:17:07.216Z,14.20
2018-04-22T00:19:33.448Z,14.00
2018-04-22T00:21:59.662Z,13.87
2018-04-22T00:24:25.867Z,14.27
2018-04-22T00:26:52.256Z,16.23
2018-04-22T00:29:18.840Z,14.73
2018-04-22T00:31:45.058Z,14.83
2018-04-22T00:34:11.364Z,15.00
2018-04-22T00:36:37.644Z,14.27
2018-04-22T00:39:03.950Z,14.40
2018-04-22T00:41:30.145Z,14.23
2018-04-22T00:43:56.653Z,14.30
2018-04-22T00:46:22.869Z,16.73
2018-04-22T00:48:49.075Z,14.77
2018-04-22T00:51:15.320Z,16.43
2018-04-22T00:53:53.803Z,16.00
2018-04-22T00:56:20.061Z,15.97
2018-04-22T00:58:46.267Z,15.60
2018-04-22T01:01:12.529Z,16.90
2018-04-22T01:03:38.794Z,16.60
2018-04-22T01:06:05.401Z,16.30
2018-04-22T01:08:31.648Z,16.10
2018-04-22T01:10:58.253Z,12.97
2018-04-22T01:13:24.466Z,17.83
2018-04-22T01:15:50.697Z,14.97
2018-04-22T01:18:16.955Z,13.50
2018-04-22T01:20:43.209Z,13.53
2018-04-22T01:23:09.788Z,15.20
2018-04-22T01:25:36.031Z,13.87
2018-04-22T01:28:02.255Z,13.87
2018-04-22T01:30:28.488Z,13.80
2018-04-22T01:32:54.711Z,13.47
2018-04-22T01:35:20.961Z,13.70
2018-04-22T01:37:47.253Z,15.40
2018-04-22T01:40:13.477Z,14.97
2018-04-22T01:42:39.677Z,14.63
2018-04-22T01:45:05.912Z,15.90
2018-04-22T01:47:32.210Z,14.33
2018-04-22T01:49:58.426Z,14.80
2018-04-22T01:52:24.693Z,15.27
2018-04-22T01:54:51.526Z,14.93
2018-04-22T01:57:17.760Z,16.07
2018-04-22T01:59:44.233Z,15.37
2018-04-22T02:02:10.491Z,16.13
2018-04-22T02:04:36.711Z,15.40
2018-04-22T02:07:04.292Z,15.63
2018-04-22T02:09:31.235Z,14.90
2018-04-22T02:11:57.885Z,14.82
2018-04-22T02:14:24.121Z,15.63
2018-04-22T02:16:50.352Z,16.75
2018-04-22T02:19:16.602Z,16.03
2018-04-22T02:21:42.856Z,16.00
2018-04-22T02:24:09.101Z,15.38
2018-04-22T02:26:35.388Z,17.43
2018-04-22T02:29:01.621Z,15.68
2018-04-22T02:31:28.659Z,15.50
2018-04-22T02:33:54.900Z,14.98
2018-04-22T02:36:21.157Z,15.90
2018-04-22T02:38:47.378Z,15.43
2018-04-22T02:41:13.641Z,15.10
2018-04-22T02:43:39.880Z,16.27
2018-04-22T02:46:06.101Z,15.43
2018-04-22T02:48:32.332Z,15.85
2018-04-22T02:50:58.552Z,16.15
2018-04-22T02:53:25.171Z,15.65
2018-04-22T02:55:51.393Z,16.73
2018-04-22T02:58:17.594Z,14.98
2018-04-22T03:00:43.844Z,16.20
2018-04-22T03:03:10.284Z,16.10
2018-04-22T03:05:36.559Z,15.93
2018-04-22T03:08:02.772Z,16.40
2018-04-22T03:10:28.988Z,16.92
2018-04-22T03:12:56.465Z,16.67
2018-04-22T03:15:22.676Z,15.23
2018-04-22T03:17:49.574Z,16.95
2018-04-22T03:20:15.833Z,17.02
2018-04-22T03:22:42.072Z,16.27
2018-04-22T03:25:08.330Z,16.23
2018-04-22T03:27:34.597Z,14.40
2018-04-22T03:30:00.826Z,15.55
2018-04-22T03:32:27.066Z,14.43
2018-04-22T03:34:53.359Z,15.50
2018-04-22T03:37:19.626Z,16.17
2018-04-22T03:39:45.835Z,14.52
2018-04-22T03:42:12.088Z,16.48
2018-04-22T03:44:38.337Z,16.77
2018-04-22T03:47:04.591Z,15.50
2018-04-22T03:49:37.814Z,15.85
2018-04-22T03:52:04.065Z,15.13
2018-04-22T03:54:37.261Z,15.45
2018-04-22T03:57:03.521Z,14.80
2018-04-22T03:59:29.744Z,16.83
2018-04-22T04:01:56.001Z,15.98
2018-04-22T04:04:22.225Z,16.15
2018-04-22T04:06:48.452Z,16.65
2018-04-22T04:09:14.689Z,16.55
2018-04-22T04:11:40.920Z,13.90
2018-04-22T04:14:07.152Z,14.60
2018-04-22T04:16:33.401Z,14.60
2018-04-22T04:19:11.912Z,15.77
2018-04-22T04:21:50.216Z,14.15
2018-04-22T04:24:37.338Z,15.55
2018-04-22T04:40:26.092Z,15.10
2018-04-22T04:42:52.319Z,15.55
2018-04-22T04:45:18.549Z,14.80
2018-04-22T04:47:45.577Z,14.77
2018-04-22T04:50:11.773Z,16.73
2018-04-22T04:52:38.058Z,16.77
2018-04-22T04:55:04.296Z,15.45
2018-04-22T04:57:30.913Z,15.48
2018-04-22T04:59:57.204Z,15.73
2018-04-22T05:02:23.417Z,15.75
2018-04-22T05:04:49.621Z,15.52
2018-04-22T05:07:16.249Z,15.90
2018-04-22T05:09:42.480Z,17.25
2018-04-22T05:12:09.076Z,15.15
2018-04-22T05:14:35.330Z,15.40
2018-04-22T05:17:01.534Z,15.50
2018-04-22T05:19:27.750Z,16.70
2018-04-22T05:21:55.004Z,16.45
2018-04-22T05:24:21.252Z,18.08
2018-04-22T05:26:47.428Z,18.45
2018-04-22T05:29:13.682Z,17.65
2018-04-22T05:31:39.910Z,21.55
2018-04-22T05:34:06.116Z,18.00
2018-04-22T05:36:32.450Z,18.65
2018-04-22T05:38:58.671Z,19.60
2018-04-22T05:41:24.894Z,18.95
2018-04-22T05:43:51.744Z,18.83
2018-04-22T05:46:17.988Z,18.25
2018-04-22T05:48:44.292Z,16.87
2018-04-22T05:51:10.487Z,19.62
2018-04-22T05:53:36.682Z,20.08
2018-04-22T05:56:02.897Z,20.52
2018-04-22T05:58:29.127Z,21.95
2018-04-22T06:00:55.348Z,20.12
2018-04-22T06:03:21.560Z,19.08
2018-04-22T06:05:48.194Z,20.55
2018-04-22T06:08:14.768Z,20.23
2018-04-22T06:10:41.022Z,19.20
2018-04-22T06:13:07.287Z,20.02
2018-04-22T06:15:33.939Z,19.85
2018-04-22T06:18:00.165Z,21.25
2018-04-22T06:20:26.464Z,19.02
2018-04-22T06:22:52.739Z,19.23
2018-04-22T06:25:19.358Z,19.10
2018-04-22T06:27:45.616Z,21.67
2018-04-22T06:30:11.838Z,19.15
2018-04-22T06:32:38.063Z,18.98
2018-04-22T06:35:04.315Z,19.30
2018-04-22T06:37:30.539Z,18.92
2018-04-22T06:39:56.756Z,19.20
2018-04-22T06:42:23.083Z,18.90
2018-04-22T06:44:49.342Z,19.95
2018-04-22T06:47:16.424Z,20.75
2018-04-22T06:49:42.707Z,20.62
2018-04-22T06:52:08.918Z,20.67
2018-04-22T06:54:35.179Z,19.80
2018-04-22T06:57:01.444Z,20.48
2018-04-22T06:59:27.654Z,20.53
2018-04-22T07:01:54.285Z,20.30
2018-04-22T07:04:20.500Z,19.53
2018-04-22T07:06:46.715Z,21.05
2018-04-22T07:09:12.973Z,20.13
2018-04-22T07:11:39.202Z,20.43
2018-04-22T07:14:05.422Z,20.27
2018-04-22T07:16:31.722Z,18.00
2018-04-22T07:18:58.997Z,17.37
2018-04-22T07:21:25.354Z,18.90
2018-04-22T07:23:51.955Z,17.37
2018-04-22T07:26:18.260Z,18.10
2018-04-22T07:28:44.513Z,16.00
2018-04-22T07:31:10.791Z,16.57
2018-04-22T07:33:37.040Z,15.70
2018-04-22T07:36:03.418Z,18.37
2018-04-22T07:38:29.721Z,14.20
2018-04-22T07:40:55.987Z,14.27
2018-04-22T07:43:22.244Z,13.10
2018-04-22T07:45:48.517Z,12.67
2018-04-22T07:48:14.757Z,13.20
2018-04-22T07:50:41.041Z,12.03
2018-04-22T07:53:07.278Z,12.47
2018-04-22T07:55:33.529Z,13.23
2018-04-22T07:57:59.746Z,11.80
2018-04-22T08:00:26.005Z,12.67
2018-04-22T08:02:52.296Z,12.07
2018-04-22T08:05:19.644Z,12.63
2018-04-22T08:07:45.887Z,12.00
2018-04-22T08:10:12.152Z,14.20
2018-04-22T08:12:38.372Z,13.20
2018-04-22T08:15:04.703Z,12.17
2018-04-22T08:17:30.935Z,13.60
2018-04-22T08:19:57.188Z,12.30
2018-04-22T08:22:23.828Z,12.97
2018-04-22T08:24:50.075Z,12.37
2018-04-22T08:27:16.324Z,12.17
2018-04-22T08:29:42.607Z,13.47
2018-04-22T08:32:08.883Z,19.00
2018-04-22T08:34:35.286Z,13.83
2018-04-22T08:37:02.651Z,15.37
2018-04-22T08:39:28.966Z,13.40
2018-04-22T08:41:55.221Z,12.57
2018-04-22T08:44:21.443Z,13.50
2018-04-22T08:46:47.722Z,13.83
2018-04-22T08:49:13.945Z,13.23
2018-04-22T08:51:40.187Z,13.10
2018-04-22T08:54:06.453Z,12.80
2018-04-22T08:56:32.936Z,11.90
2018-04-22T08:59:00.765Z,11.50
2018-04-22T09:01:27.937Z,10.90
2018-04-22T09:03:54.233Z,11.27
2018-04-22T09:06:20.495Z,10.97
2018-04-22T09:08:46.756Z,12.00
2018-04-22T09:11:13.043Z,11.27
2018-04-22T09:13:40.134Z,11.73
2018-04-22T09:16:06.431Z,10.50
2018-04-22T09:18:32.684Z,10.17
2018-04-22T09:20:59.100Z,10.20
2018-04-22T09:23:25.480Z,10.40
2018-04-22T09:25:52.054Z,11.53
2018-04-22T09:28:18.347Z,10.80
2018-04-22T09:30:44.601Z,10.87
2018-04-22T09:33:10.940Z,13.03
2018-04-22T09:35:37.144Z,9.07
2018-04-22T09:38:03.375Z,9.57
2018-04-22T09:40:29.692Z,8.50
2018-04-22T09:42:56.005Z,8.77
2018-04-22T09:45:22.227Z,8.90
2018-04-22T09:47:48.510Z,8.07
2018-04-22T09:50:14.763Z,7.30
2018-04-22T09:52:40.997Z,8.87
2018-04-22T09:55:07.257Z,7.53
2018-04-22T09:57:33.901Z,7.47
2018-04-22T10:00:00.528Z,6.93
2018-04-22T10:02:32.064Z,7.30
2018-04-22T10:05:04.307Z,7.37
2018-04-22T10:07:31.357Z,7.47
2018-04-22T10:09:57.642Z,7.00
2018-04-22T10:12:23.925Z,10.30
2018-04-22T10:14:50.144Z,7.17
2018-04-22T10:17:16.421Z,6.27
2018-04-22T10:19:43.048Z,5.93
2018-04-22T10:22:09.744Z,7.30
2018-04-22T10:24:36.949Z,6.60
2018-04-22T10:27:03.227Z,6.50
2018-04-22T10:29:29.588Z,7.53
2018-04-22T10:31:55.869Z,6.73
2018-04-22T10:34:22.191Z,6.90
2018-04-22T10:36:48.400Z,6.30
2018-04-22T10:39:14.662Z,6.67
2018-04-22T10:41:40.890Z,5.37
2018-04-22T10:44:07.129Z,6.63
2018-04-22T10:46:33.458Z,5.73
2018-04-22T10:48:59.694Z,5.97
2018-04-22T10:51:26.132Z,5.07
2018-04-22T10:53:52.463Z,7.30
2018-04-22T10:56:18.702Z,6.60
2018-04-22T10:58:45.008Z,5.77
2018-04-22T11:01:11.273Z,5.33
2018-04-22T11:03:37.494Z,6.60
2018-04-22T11:06:04.417Z,6.30
2018-04-22T11:08:30.679Z,5.97
2018-04-22T11:10:57.288Z,5.83
2018-04-22T11:13:23.535Z,6.40
2018-04-22T11:15:49.781Z,5.37
2018-04-22T11:18:16.486Z,6.77
2018-04-22T11:20:42.739Z,6.03
2018-04-22T11:23:09.026Z,5.73
2018-04-22T11:25:35.290Z,7.53
2018-04-22T11:28:01.527Z,6.30
2018-04-22T11:30:27.771Z,5.87
2018-04-22T11:32:53.992Z,7.43
2018-04-22T11:35:20.602Z,6.50
2018-04-22T11:37:46.866Z,6.40
2018-04-22T11:40:14.753Z,7.30
2018-04-22T11:42:40.983Z,6.80
2018-04-22T11:45:07.256Z,7.10
2018-04-22T11:47:33.507Z,5.97
2018-04-22T11:50:00.087Z,6.53
2018-04-22T11:52:26.330Z,6.00
2018-04-22T11:54:52.631Z,5.80
2018-04-22T11:57:18.828Z,6.13
2018-04-22T11:59:45.462Z,5.80
2018-04-22T12:02:12.100Z,6.00
2018-04-22T12:04:38.338Z,5.90
2018-04-22T12:07:04.569Z,5.60
2018-04-22T12:09:30.825Z,5.87
2018-04-22T12:11:57.105Z,5.60
2018-04-22T12:14:23.327Z,5.90
2018-04-22T12:16:49.590Z,5.50
2018-04-22T12:19:15.811Z,6.07
2018-04-22T12:21:42.455Z,5.87
2018-04-22T12:24:08.683Z,83.67
2018-04-22T12:26:34.986Z,6.00
2018-04-22T12:29:01.206Z,7.53
2018-04-22T12:31:27.444Z,6.40
2018-04-22T12:33:54.063Z,5.70
2018-04-22T12:36:20.864Z,5.77
2018-04-22T12:38:47.127Z,5.70
2018-04-22T12:41:13.355Z,6.70
2018-04-22T12:43:39.618Z,5.70
2018-04-22T12:46:05.838Z,4.87
2018-04-22T12:48:32.068Z,5.80
2018-04-22T12:50:58.339Z,5.60
2018-04-22T12:53:24.603Z,5.40
2018-04-22T12:55:50.827Z,6.03
2018-04-22T12:58:17.037Z,5.10
2018-04-22T13:00:43.257Z,5.10
2018-04-22T13:03:09.525Z,6.07
2018-04-22T13:05:35.819Z,5.33
2018-04-22T13:08:02.118Z,5.57
2018-04-22T13:10:28.347Z,5.03
2018-04-22T13:12:54.548Z,5.43
2018-04-22T13:15:20.777Z,5.47
2018-04-22T13:17:47.011Z,5.57
2018-04-22T13:20:13.219Z,5.73
2018-04-22T13:22:39.459Z,6.70
2018-04-22T13:25:05.675Z,5.90
2018-04-22T13:27:31.918Z,6.80
2018-04-22T13:29:58.210Z,5.57
2018-04-22T13:32:24.449Z,5.67
2018-04-22T13:34:50.713Z,6.10
2018-04-22T13:37:17.309Z,5.70
2018-04-22T13:39:43.564Z,5.40
2018-04-22T13:42:09.803Z,16.60
2018-04-22T13:44:36.459Z,6.10
2018-04-22T13:47:02.737Z,5.40
2018-04-22T13:49:28.999Z,6.43
2018-04-22T13:51:55.585Z,6.20
2018-04-22T13:54:21.882Z,5.27
2018-04-22T13:56:48.088Z,6.00
2018-04-22T13:59:14.711Z,4.63
2018-04-22T14:01:40.928Z,5.73
2018-04-22T14:04:07.190Z,5.70
2018-04-22T14:06:33.399Z,4.90
2018-04-22T14:08:59.654Z,5.30
2018-04-22T14:11:25.913Z,5.40
2018-04-22T14:13:52.188Z,5.77
2018-04-22T14:16:18.469Z,5.60
2018-04-22T14:18:44.694Z,5.50
2018-04-22T14:21:10.993Z,5.10
2018-04-22T14:23:37.194Z,6.30
2018-04-22T14:26:03.594Z,6.40
2018-04-22T14:28:29.859Z,7.57
2018-04-22T14:30:56.146Z,7.70
2018-04-22T14:33:22.440Z,6.17
2018-04-22T14:35:49.096Z,5.97
2018-04-22T14:38:15.336Z,6.17
2018-04-22T14:40:41.583Z,6.13
2018-04-22T14:43:07.815Z,5.83
2018-04-22T14:45:46.223Z,5.00
2018-04-22T14:48:12.469Z,4.93
2018-04-22T14:50:38.722Z,6.17
2018-04-22T14:53:04.952Z,5.67
2018-04-22T14:55:31.594Z,5.53
2018-04-22T14:57:58.167Z,6.63
2018-04-22T15:00:24.417Z,6.63
2018-04-22T15:02:50.652Z,4.53
2018-04-22T15:05:16.986Z,5.03
2018-04-22T15:07:43.161Z,5.40
2018-04-22T15:10:09.416Z,5.43
2018-04-22T15:12:35.650Z,4.30
2018-04-22T15:15:01.894Z,4.53
2018-04-22T15:17:28.149Z,4.60
2018-04-22T15:19:54.637Z,3.80
2018-04-22T15:22:20.853Z,3.90
2018-04-22T15:24:47.090Z,5.20
2018-04-22T15:27:13.322Z,4.70
2018-04-22T15:29:39.593Z,3.83
2018-04-22T15:32:05.836Z,3.63
2018-04-22T15:34:32.444Z,4.33
2018-04-22T15:36:58.713Z,6.20
2018-04-22T15:39:25.312Z,5.10
2018-04-22T15:41:51.572Z,4.70
2018-04-22T15:44:18.169Z,4.37
2018-04-22T15:46:44.437Z,4.33
2018-04-22T15:49:11.018Z,4.20
2018-04-22T15:51:37.319Z,4.97
2018-04-22T15:54:03.913Z,5.93
2018-04-22T15:56:30.173Z,6.03
2018-04-22T15:58:56.803Z,5.77
2018-04-22T16:01:23.458Z,5.10
2018-04-22T16:03:49.674Z,5.50
2018-04-22T16:06:16.307Z,5.97
2018-04-22T16:08:42.895Z,6.57
2018-04-22T16:11:09.132Z,6.30
2018-04-22T16:13:35.374Z,7.13
2018-04-22T16:16:01.602Z,6.43
2018-04-22T16:18:28.679Z,4.87
2018-04-22T16:20:55.539Z,5.07
2018-04-22T16:23:21.791Z,4.90
2018-04-22T16:25:48.126Z,4.90
2018-04-22T16:28:14.355Z,5.73
2018-04-22T16:30:40.676Z,4.57
2018-04-22T16:33:06.931Z,4.20
2018-04-22T16:35:33.161Z,4.50
2018-04-22T16:37:59.396Z,4.60
2018-04-22T16:40:25.632Z,4.37
2018-04-22T16:42:51.870Z,4.03
2018-04-22T16:45:18.480Z,4.17
2018-04-22T16:47:44.736Z,4.03
2018-04-22T16:50:11.003Z,4.37
2018-04-22T16:52:37.236Z,4.67
2018-04-22T16:55:03.485Z,4.40
2018-04-22T16:57:30.596Z,4.40
2018-04-22T16:59:56.840Z,3.70
2018-04-22T17:02:23.106Z,4.47
2018-04-22T17:04:49.307Z,4.50
2018-04-22T17:07:15.581Z,4.83
2018-04-22T17:09:41.972Z,4.97
2018-04-22T17:12:08.228Z,4.93
2018-04-22T17:14:34.522Z,4.57
2018-04-22T17:17:00.794Z,4.47
2018-04-22T17:19:27.041Z,4.47
2018-04-22T17:21:53.643Z,5.20
2018-04-22T17:24:19.902Z,5.50
2018-04-22T17:26:46.557Z,5.20
2018-04-22T17:29:13.163Z,5.87
2018-04-22T17:31:39.443Z,6.33
2018-04-22T17:34:05.677Z,4.80
2018-04-22T17:36:31.899Z,4.57
2018-04-22T17:38:58.172Z,4.53
2018-04-22T17:41:24.402Z,5.10
2018-04-22T17:43:50.631Z,6.40
2018-04-22T17:46:16.856Z,5.13
2018-04-22T17:48:43.134Z,4.80
2018-04-22T17:51:09.391Z,4.30
2018-04-22T17:53:35.721Z,9.93
2018-04-22T17:56:02.051Z,26.07
2018-04-22T17:58:28.294Z,5.40
2018-04-22T18:00:54.541Z,4.90
2018-04-22T18:03:20.867Z,4.50
2018-04-22T18:05:47.149Z,5.70
2018-04-22T18:08:13.419Z,4.77
2018-04-22T18:10:39.642Z,5.10
2018-04-22T18:13:06.286Z,4.90
2018-04-22T18:15:32.560Z,4.67
2018-04-22T18:17:58.812Z,5.00
2018-04-22T18:20:25.092Z,4.57
2018-04-22T18:22:51.339Z,5.10
2018-04-22T18:25:17.591Z,5.53
2018-04-22T18:27:43.895Z,5.50
2018-04-22T18:30:10.563Z,5.20
2018-04-22T18:32:36.853Z,4.40
2018-04-22T18:35:03.092Z,6.13
2018-04-22T18:37:29.345Z,4.90
2018-04-22T18:39:55.588Z,4.97
2018-04-22T18:42:21.809Z,5.83
2018-04-22T18:44:48.073Z,5.70
2018-04-22T18:47:14.321Z,6.53
2018-04-22T18:49:41.980Z,6.13
2018-04-22T18:52:08.593Z,5.17
2018-04-22T18:54:34.897Z,4.80
2018-04-22T18:57:01.142Z,7.00
2018-04-22T18:59:27.373Z,6.30
2018-04-22T19:01:53.637Z,6.80
2018-04-22T19:04:19.925Z,6.13
2018-04-22T19:06:46.251Z,6.33
2018-04-22T19:09:12.526Z,5.70
2018-04-22T19:11:39.142Z,6.33
2018-04-22T19:14:05.424Z,6.40
2018-04-22T19:16:31.697Z,5.90
2018-04-22T19:18:57.986Z,5.63
2018-04-22T19:21:24.224Z,5.63
2018-04-22T19:23:50.590Z,5.97
2018-04-22T19:26:17.282Z,5.70
2018-04-22T19:28:43.549Z,5.37
2018-04-22T19:31:09.778Z,5.53
2018-04-22T19:33:36.802Z,5.47
2018-04-22T19:36:03.050Z,6.40
2018-04-22T19:38:30.139Z,6.60
2018-04-22T19:40:56.441Z,5.80
2018-04-22T19:43:22.661Z,7.83
2018-04-22T19:45:48.896Z,5.63
2018-04-22T19:48:15.191Z,5.57
2018-04-22T19:50:41.438Z,5.03
2018-04-22T19:53:07.682Z,5.13
2018-04-22T19:55:33.927Z,5.57
2018-04-22T19:58:00.538Z,5.53
2018-04-22T20:00:26.791Z,6.57
2018-04-22T20:02:53.103Z,6.07
2018-04-22T20:05:19.417Z,7.03
2018-04-22T20:07:45.660Z,6.40
2018-04-22T20:10:11.911Z,6.20
2018-04-22T20:12:38.154Z,6.43
2018-04-22T20:15:05.756Z,5.73
2018-04-22T20:17:32.017Z,6.00
2018-04-22T20:19:58.244Z,6.83
2018-04-22T20:22:24.497Z,6.60
2018-04-22T20:24:50.775Z,7.90
2018-04-22T20:27:17.009Z,6.50
2018-04-22T20:29:43.254Z,6.37
2018-04-22T20:32:09.477Z,6.37
2018-04-22T20:34:35.777Z,6.50
2018-04-22T20:37:02.079Z,6.93
2018-04-22T20:39:28.343Z,6.50
2018-04-22T20:41:54.571Z,6.97
2018-04-22T20:44:20.869Z,7.07
2018-04-22T20:46:47.115Z,8.13
2018-04-22T20:49:13.340Z,9.00
2018-04-22T20:51:39.573Z,7.97
2018-04-22T20:54:05.809Z,8.60
2018-04-22T20:56:32.071Z,8.73
2018-04-22T20:58:58.278Z,9.03
2018-04-22T21:01:24.547Z,8.93
2018-04-22T21:03:51.211Z,10.20
2018-04-22T21:06:17.457Z,9.20
2018-04-22T21:08:43.698Z,7.63
2018-04-22T21:11:09.954Z,9.37
2018-04-22T21:13:36.193Z,8.93
2018-04-22T21:16:02.820Z,8.90
2018-04-22T21:18:29.068Z,8.87
2018-04-22T21:21:02.497Z,7.93
2018-04-22T21:23:28.813Z,9.43
2018-04-22T21:25:56.106Z,8.87
2018-04-22T21:28:22.448Z,10.70
2018-04-22T21:30:48.632Z,8.93
2018-04-22T21:33:14.848Z,9.70
2018-04-22T21:35:41.096Z,9.47
2018-04-22T21:38:07.317Z,10.07
2018-04-22T21:40:33.588Z,10.97
2018-04-22T21:42:59.825Z,9.83
2018-04-22T21:45:26.046Z,9.10
2018-04-22T21:47:52.320Z,9.53
2018-04-22T21:50:18.578Z,10.67
2018-04-22T21:52:44.832Z,10.17
2018-04-22T21:55:11.122Z,10.40
2018-04-22T21:57:44.149Z,10.37
2018-04-22T22:00:10.431Z,10.03
2018-04-22T22:02:36.654Z,10.03
2018-04-22T22:05:02.883Z,10.90
2018-04-22T22:07:29.146Z,10.80
2018-04-22T22:09:55.360Z,9.77
2018-04-22T22:12:21.608Z,10.87
2018-04-22T22:14:47.816Z,9.97
2018-04-22T22:17:14.027Z,10.30
2018-04-22T22:19:40.236Z,10.30
2018-04-22T22:22:06.484Z,9.00
2018-04-22T22:24:32.712Z,10.43
2018-04-22T22:26:58.917Z,11.00
2018-04-22T22:29:25.137Z,9.80
2018-04-22T22:31:51.386Z,11.80
2018-04-22T22:34:17.648Z,10.17
2018-04-22T22:36:43.885Z,9.77
2018-04-22T22:39:10.096Z,10.80
2018-04-22T22:41:36.328Z,10.80
2018-04-22T22:44:02.564Z,12.03
2018-04-22T22:46:28.858Z,10.57
2018-04-22T22:48:55.066Z,11.33
2018-04-22T22:51:21.679Z,11.43
2018-04-22T22:53:47.871Z,10.40
2018-04-22T22:56:14.117Z,10.50
2018-04-22T22:58:40.322Z,11.27
2018-04-22T23:01:06.636Z,10.87
2018-04-22T23:03:32.831Z,11.23
2018-04-22T23:05:59.040Z,11.40
2018-04-22T23:08:25.248Z,11.43
2018-04-22T23:10:51.520Z,11.67
2018-04-22T23:13:17.744Z,13.97
2018-04-22T23:15:43.965Z,11.37
2018-04-22T23:18:10.195Z,10.70
2018-04-22T23:20:36.423Z,11.27
2018-04-22T23:23:02.694Z,12.10
2018-04-22T23:25:28.916Z,11.43
2018-04-22T23:27:55.139Z,12.40
2018-04-22T23:30:21.331Z,14.37
2018-04-22T23:32:47.937Z,12.03
2018-04-22T23:35:14.140Z,13.30
2018-04-22T23:37:40.367Z,13.00
2018-04-22T23:40:06.604Z,13.80
2018-04-22T23:42:32.863Z,13.40
2018-04-22T23:44:59.175Z,11.87
2018-04-22T23:47:25.479Z,13.53
2018-04-22T23:49:51.726Z,12.63
2018-04-22T23:52:17.969Z,12.87
2018-04-22T23:54:44.183Z,13.50
2018-04-22T23:57:10.420Z,12.10
2018-04-22T23:59:36.657Z,12.30
